sensor_id;sensor_type;location;lat;lon;timestamp;P1;durP1;ratioP1;P2;durP2;ratioP2
16228;SDS011;8222;51.462;12.630;2023-12-20T00:01:13;4.20;;;3.72;;
16228;SDS011;8222;51.462;12.630;2023-12-20T00:03:42;3.63;;;3.30;;
16228;SDS011;8222;51.462;12.630;2023-12-20T00:06:10;4.45;;;3.90;;
16228;SDS011;8222;51.462;12.630;2023-12-20T00:08:40;4.50;;;4.10;;
16228;SDS011;8222;51.462;12.630;2023-12-20T00:11:08;4.27;;;3.30;;
16228;SDS011;8222;51.462;12.630;2023-12-20T00:13:34;4.53;;;3.47;;
16228;SDS011;8222;51.462;12.630;2023-12-20T00:15:59;3.90;;;3.53;;
16228;SDS011;8222;51.462;12.630;2023-12-20T00:18:25;3.63;;;3.33;;
16228;SDS011;8222;51.462;12.630;2023-12-20T00:20:53;3.10;;;2.80;;
16228;SDS011;8222;51.462;12.630;2023-12-20T00:23:21;3.17;;;2.85;;
16228;SDS011;8222;51.462;12.630;2023-12-20T00:25:49;3.70;;;2.97;;
16228;SDS011;8222;51.462;12.630;2023-12-20T00:28:17;3.50;;;2.43;;
16228;SDS011;8222;51.462;12.630;2023-12-20T00:30:43;2.42;;;2.25;;
16228;SDS011;8222;51.462;12.630;2023-12-20T00:33:09;4.23;;;3.13;;
16228;SDS011;8222;51.462;12.630;2023-12-20T00:35:34;4.07;;;3.63;;
16228;SDS011;8222;51.462;12.630;2023-12-20T00:38:00;3.23;;;2.93;;
16228;SDS011;8222;51.462;12.630;2023-12-20T00:40:26;4.27;;;3.87;;
16228;SDS011;8222;51.462;12.630;2023-12-20T00:42:54;4.85;;;4.35;;
16228;SDS011;8222;51.462;12.630;2023-12-20T00:45:19;4.97;;;4.47;;
16228;SDS011;8222;51.462;12.630;2023-12-20T00:47:45;4.33;;;3.93;;
16228;SDS011;8222;51.462;12.630;2023-12-20T00:50:11;4.83;;;4.37;;
16228;SDS011;8222;51.462;12.630;2023-12-20T00:52:36;6.23;;;5.63;;
16228;SDS011;8222;51.462;12.630;2023-12-20T00:55:02;7.73;;;6.90;;
16228;SDS011;8222;51.462;12.630;2023-12-20T00:57:31;7.33;;;6.23;;
16228;SDS011;8222;51.462;12.630;2023-12-20T00:59:59;10.30;;;7.93;;
16228;SDS011;8222;51.462;12.630;2023-12-20T01:02:36;8.93;;;7.70;;
16228;SDS011;8222;51.462;12.630;2023-12-20T01:05:02;11.82;;;9.07;;
16228;SDS011;8222;51.462;12.630;2023-12-20T01:07:30;8.13;;;7.33;;
16228;SDS011;8222;51.462;12.630;2023-12-20T01:09:58;8.20;;;7.13;;
16228;SDS011;8222;51.462;12.630;2023-12-20T01:12:24;7.18;;;5.82;;
16228;SDS011;8222;51.462;12.630;2023-12-20T01:14:50;8.60;;;6.33;;
16228;SDS011;8222;51.462;12.630;2023-12-20T01:17:20;6.10;;;3.97;;
16228;SDS011;8222;51.462;12.630;2023-12-20T01:19:46;3.83;;;3.43;;
16228;SDS011;8222;51.462;12.630;2023-12-20T01:22:14;3.17;;;2.70;;
16228;SDS011;8222;51.462;12.630;2023-12-20T01:24:40;6.97;;;3.00;;
16228;SDS011;8222;51.462;12.630;2023-12-20T01:27:05;3.50;;;3.20;;
16228;SDS011;8222;51.462;12.630;2023-12-20T01:29:33;3.65;;;3.35;;
16228;SDS011;8222;51.462;12.630;2023-12-20T01:32:01;3.78;;;3.47;;
16228;SDS011;8222;51.462;12.630;2023-12-20T01:34:27;3.90;;;3.37;;
16228;SDS011;8222;51.462;12.630;2023-12-20T01:36:52;3.67;;;3.17;;
16228;SDS011;8222;51.462;12.630;2023-12-20T01:39:20;3.37;;;3.07;;
16228;SDS011;8222;51.462;12.630;2023-12-20T01:41:46;3.27;;;2.87;;
16228;SDS011;8222;51.462;12.630;2023-12-20T01:44:11;2.90;;;2.70;;
16228;SDS011;8222;51.462;12.630;2023-12-20T01:46:37;2.40;;;2.20;;
16228;SDS011;8222;51.462;12.630;2023-12-20T01:49:03;2.20;;;1.90;;
16228;SDS011;8222;51.462;12.630;2023-12-20T01:51:29;2.40;;;2.13;;
16228;SDS011;8222;51.462;12.630;2023-12-20T01:53:58;2.97;;;1.87;;
16228;SDS011;8222;51.462;12.630;2023-12-20T01:56:25;2.27;;;1.93;;
16228;SDS011;8222;51.462;12.630;2023-12-20T01:58:53;1.85;;;1.70;;
16228;SDS011;8222;51.462;12.630;2023-12-20T02:01:23;2.83;;;2.40;;
16228;SDS011;8222;51.462;12.630;2023-12-20T02:03:49;2.55;;;2.35;;
16228;SDS011;8222;51.462;12.630;2023-12-20T02:06:16;2.13;;;1.90;;
16228;SDS011;8222;51.462;12.630;2023-12-20T02:08:46;2.80;;;2.50;;
16228;SDS011;8222;51.462;12.630;2023-12-20T02:11:16;2.53;;;2.33;;
16228;SDS011;8222;51.462;12.630;2023-12-20T02:13:44;2.75;;;2.55;;
16228;SDS011;8222;51.462;12.630;2023-12-20T02:16:14;2.40;;;2.20;;
16228;SDS011;8222;51.462;12.630;2023-12-20T02:18:40;1.87;;;1.73;;
16228;SDS011;8222;51.462;12.630;2023-12-20T02:21:09;2.67;;;2.47;;
16228;SDS011;8222;51.462;12.630;2023-12-20T02:23:37;2.40;;;2.20;;
16228;SDS011;8222;51.462;12.630;2023-12-20T02:26:05;2.53;;;2.33;;
16228;SDS011;8222;51.462;12.630;2023-12-20T02:28:33;2.20;;;2.00;;
16228;SDS011;8222;51.462;12.630;2023-12-20T02:31:00;2.50;;;2.30;;
16228;SDS011;8222;51.462;12.630;2023-12-20T02:33:28;2.42;;;2.22;;
16228;SDS011;8222;51.462;12.630;2023-12-20T02:35:53;2.10;;;1.90;;
16228;SDS011;8222;51.462;12.630;2023-12-20T02:38:24;2.92;;;2.50;;
16228;SDS011;8222;51.462;12.630;2023-12-20T02:40:54;2.35;;;2.15;;
16228;SDS011;8222;51.462;12.630;2023-12-20T02:43:24;2.53;;;2.33;;
16228;SDS011;8222;51.462;12.630;2023-12-20T02:45:52;2.72;;;2.30;;
16228;SDS011;8222;51.462;12.630;2023-12-20T02:48:18;1.70;;;1.60;;
16228;SDS011;8222;51.462;12.630;2023-12-20T02:50:43;2.40;;;1.87;;
16228;SDS011;8222;51.462;12.630;2023-12-20T02:53:14;2.57;;;1.77;;
16228;SDS011;8222;51.462;12.630;2023-12-20T02:55:42;2.78;;;2.30;;
16228;SDS011;8222;51.462;12.630;2023-12-20T02:58:07;2.23;;;1.90;;
16228;SDS011;8222;51.462;12.630;2023-12-20T03:00:36;2.33;;;1.63;;
16228;SDS011;8222;51.462;12.630;2023-12-20T03:03:03;1.67;;;1.57;;
16228;SDS011;8222;51.462;12.630;2023-12-20T03:05:36;2.07;;;1.97;;
16228;SDS011;8222;51.462;12.630;2023-12-20T03:08:02;1.90;;;1.70;;
16228;SDS011;8222;51.462;12.630;2023-12-20T03:10:27;2.08;;;1.90;;
16228;SDS011;8222;51.462;12.630;2023-12-20T03:12:53;1.80;;;1.70;;
16228;SDS011;8222;51.462;12.630;2023-12-20T03:15:19;2.60;;;2.40;;
16228;SDS011;8222;51.462;12.630;2023-12-20T03:17:44;2.28;;;2.08;;
16228;SDS011;8222;51.462;12.630;2023-12-20T03:20:10;2.30;;;2.10;;
16228;SDS011;8222;51.462;12.630;2023-12-20T03:22:35;2.65;;;2.45;;
16228;SDS011;8222;51.462;12.630;2023-12-20T03:25:03;2.47;;;2.27;;
16228;SDS011;8222;51.462;12.630;2023-12-20T03:27:29;2.60;;;2.40;;
16228;SDS011;8222;51.462;12.630;2023-12-20T03:29:57;2.67;;;2.47;;
16228;SDS011;8222;51.462;12.630;2023-12-20T03:32:23;2.67;;;2.47;;
16228;SDS011;8222;51.462;12.630;2023-12-20T03:34:48;3.17;;;2.60;;
16228;SDS011;8222;51.462;12.630;2023-12-20T03:37:14;4.00;;;2.83;;
16228;SDS011;8222;51.462;12.630;2023-12-20T03:39:40;3.10;;;2.80;;
16228;SDS011;8222;51.462;12.630;2023-12-20T03:42:10;2.75;;;2.42;;
16228;SDS011;8222;51.462;12.630;2023-12-20T03:44:38;3.17;;;2.43;;
16228;SDS011;8222;51.462;12.630;2023-12-20T03:47:05;2.58;;;2.35;;
16228;SDS011;8222;51.462;12.630;2023-12-20T03:49:30;2.60;;;2.40;;
16228;SDS011;8222;51.462;12.630;2023-12-20T03:51:56;3.37;;;2.07;;
16228;SDS011;8222;51.462;12.630;2023-12-20T03:54:24;3.43;;;2.20;;
16228;SDS011;8222;51.462;12.630;2023-12-20T03:56:52;2.63;;;2.38;;
16228;SDS011;8222;51.462;12.630;2023-12-20T03:59:20;3.60;;;2.20;;
16228;SDS011;8222;51.462;12.630;2023-12-20T04:01:46;1.70;;;1.60;;
16228;SDS011;8222;51.462;12.630;2023-12-20T04:04:12;3.70;;;2.90;;
16228;SDS011;8222;51.462;12.630;2023-12-20T04:06:38;2.47;;;2.20;;
16228;SDS011;8222;51.462;12.630;2023-12-20T04:09:06;2.22;;;2.00;;
16228;SDS011;8222;51.462;12.630;2023-12-20T04:11:34;3.25;;;2.80;;
16228;SDS011;8222;51.462;12.630;2023-12-20T04:14:02;2.80;;;2.47;;
16228;SDS011;8222;51.462;12.630;2023-12-20T04:16:30;2.53;;;2.00;;
16228;SDS011;8222;51.462;12.630;2023-12-20T04:18:56;2.17;;;1.98;;
16228;SDS011;8222;51.462;12.630;2023-12-20T04:21:21;1.70;;;1.60;;
16228;SDS011;8222;51.462;12.630;2023-12-20T04:23:50;2.60;;;2.05;;
16228;SDS011;8222;51.462;12.630;2023-12-20T04:26:18;3.67;;;2.57;;
16228;SDS011;8222;51.462;12.630;2023-12-20T04:28:46;4.20;;;2.93;;
16228;SDS011;8222;51.462;12.630;2023-12-20T04:31:12;6.82;;;5.97;;
16228;SDS011;8222;51.462;12.630;2023-12-20T04:33:38;3.50;;;3.20;;
16228;SDS011;8222;51.462;12.630;2023-12-20T04:36:06;4.63;;;3.63;;
16228;SDS011;8222;51.462;12.630;2023-12-20T04:38:34;3.63;;;3.30;;
16228;SDS011;8222;51.462;12.630;2023-12-20T04:41:02;3.17;;;2.90;;
16228;SDS011;8222;51.462;12.630;2023-12-20T04:43:30;3.50;;;3.20;;
16228;SDS011;8222;51.462;12.630;2023-12-20T04:46:00;3.47;;;3.08;;
16228;SDS011;8222;51.462;12.630;2023-12-20T04:48:27;3.50;;;3.20;;
16228;SDS011;8222;51.462;12.630;2023-12-20T04:50:55;3.03;;;2.57;;
16228;SDS011;8222;51.462;12.630;2023-12-20T04:53:21;3.03;;;2.83;;
16228;SDS011;8222;51.462;12.630;2023-12-20T04:55:46;3.10;;;2.80;;
16228;SDS011;8222;51.462;12.630;2023-12-20T04:58:12;2.90;;;2.70;;
16228;SDS011;8222;51.462;12.630;2023-12-20T05:00:37;2.72;;;2.33;;
16228;SDS011;8222;51.462;12.630;2023-12-20T05:03:03;2.23;;;2.03;;
16228;SDS011;8222;51.462;12.630;2023-12-20T05:05:29;3.90;;;3.30;;
16228;SDS011;8222;51.462;12.630;2023-12-20T05:07:55;3.42;;;3.13;;
16228;SDS011;8222;51.462;12.630;2023-12-20T05:10:23;3.90;;;3.60;;
16228;SDS011;8222;51.462;12.630;2023-12-20T05:12:49;3.17;;;2.93;;
16228;SDS011;8222;51.462;12.630;2023-12-20T05:15:14;3.35;;;3.05;;
16228;SDS011;8222;51.462;12.630;2023-12-20T05:17:40;5.30;;;4.80;;
16228;SDS011;8222;51.462;12.630;2023-12-20T05:20:08;9.85;;;8.68;;
16228;SDS011;8222;51.462;12.630;2023-12-20T05:22:34;3.83;;;3.53;;
16228;SDS011;8222;51.462;12.630;2023-12-20T05:24:59;3.63;;;3.33;;
16228;SDS011;8222;51.462;12.630;2023-12-20T05:27:25;3.53;;;3.23;;
16228;SDS011;8222;51.462;12.630;2023-12-20T05:29:50;3.45;;;3.15;;
16228;SDS011;8222;51.462;12.630;2023-12-20T05:32:18;3.23;;;2.50;;
16228;SDS011;8222;51.462;12.630;2023-12-20T05:34:46;2.90;;;2.70;;
16228;SDS011;8222;51.462;12.630;2023-12-20T05:37:12;2.30;;;2.00;;
16228;SDS011;8222;51.462;12.630;2023-12-20T05:39:42;3.03;;;2.70;;
16228;SDS011;8222;51.462;12.630;2023-12-20T05:42:08;3.20;;;2.70;;
16228;SDS011;8222;51.462;12.630;2023-12-20T05:44:36;2.47;;;2.27;;
16228;SDS011;8222;51.462;12.630;2023-12-20T05:47:02;3.00;;;2.70;;
16228;SDS011;8222;51.462;12.630;2023-12-20T05:49:28;3.00;;;2.70;;
16228;SDS011;8222;51.462;12.630;2023-12-20T05:51:56;4.00;;;2.80;;
16228;SDS011;8222;51.462;12.630;2023-12-20T05:54:27;3.28;;;2.20;;
16228;SDS011;8222;51.462;12.630;2023-12-20T05:56:52;3.47;;;2.20;;
16228;SDS011;8222;51.462;12.630;2023-12-20T05:59:22;2.50;;;2.30;;
16228;SDS011;8222;51.462;12.630;2023-12-20T06:01:53;5.85;;;3.38;;
16228;SDS011;8222;51.462;12.630;2023-12-20T06:04:18;2.30;;;2.03;;
16228;SDS011;8222;51.462;12.630;2023-12-20T06:06:46;5.93;;;3.10;;
16228;SDS011;8222;51.462;12.630;2023-12-20T06:09:14;4.73;;;3.57;;
16228;SDS011;8222;51.462;12.630;2023-12-20T06:11:42;3.40;;;3.10;;
16228;SDS011;8222;51.462;12.630;2023-12-20T06:14:10;3.10;;;2.63;;
16228;SDS011;8222;51.462;12.630;2023-12-20T06:16:38;3.27;;;2.97;;
16228;SDS011;8222;51.462;12.630;2023-12-20T06:19:04;3.53;;;3.27;;
16228;SDS011;8222;51.462;12.630;2023-12-20T06:21:35;5.70;;;4.38;;
16228;SDS011;8222;51.462;12.630;2023-12-20T06:24:03;5.50;;;4.07;;
16228;SDS011;8222;51.462;12.630;2023-12-20T06:26:29;5.20;;;4.55;;
16228;SDS011;8222;51.462;12.630;2023-12-20T06:28:54;5.78;;;4.72;;
16228;SDS011;8222;51.462;12.630;2023-12-20T06:31:22;9.23;;;7.33;;
16228;SDS011;8222;51.462;12.630;2023-12-20T06:33:50;5.40;;;4.90;;
16228;SDS011;8222;51.462;12.630;2023-12-20T06:36:24;5.80;;;4.70;;
16228;SDS011;8222;51.462;12.630;2023-12-20T06:38:51;3.83;;;3.10;;
16228;SDS011;8222;51.462;12.630;2023-12-20T06:41:19;5.60;;;4.50;;
16228;SDS011;8222;51.462;12.630;2023-12-20T06:43:51;3.30;;;3.03;;
16228;SDS011;8222;51.462;12.630;2023-12-20T06:46:18;5.30;;;3.40;;
16228;SDS011;8222;51.462;12.630;2023-12-20T06:48:44;5.20;;;3.73;;
16228;SDS011;8222;51.462;12.630;2023-12-20T06:51:14;4.68;;;3.58;;
16228;SDS011;8222;51.462;12.630;2023-12-20T06:53:41;5.22;;;3.60;;
16228;SDS011;8222;51.462;12.630;2023-12-20T06:56:10;3.23;;;2.47;;
16228;SDS011;8222;51.462;12.630;2023-12-20T06:58:37;3.88;;;3.10;;
16228;SDS011;8222;51.462;12.630;2023-12-20T07:01:03;2.57;;;2.13;;
16228;SDS011;8222;51.462;12.630;2023-12-20T07:03:30;2.27;;;2.07;;
16228;SDS011;8222;51.462;12.630;2023-12-20T07:05:55;3.10;;;2.77;;
16228;SDS011;8222;51.462;12.630;2023-12-20T07:08:21;3.43;;;2.50;;
16228;SDS011;8222;51.462;12.630;2023-12-20T07:10:46;3.23;;;2.80;;
16228;SDS011;8222;51.462;12.630;2023-12-20T07:13:12;3.17;;;2.87;;
16228;SDS011;8222;51.462;12.630;2023-12-20T07:15:39;4.20;;;3.85;;
16228;SDS011;8222;51.462;12.630;2023-12-20T07:18:04;5.35;;;3.55;;
16228;SDS011;8222;51.462;12.630;2023-12-20T07:20:32;3.35;;;3.05;;
16228;SDS011;8222;51.462;12.630;2023-12-20T07:22:58;3.33;;;3.03;;
16228;SDS011;8222;51.462;12.630;2023-12-20T07:25:24;4.90;;;3.22;;
16228;SDS011;8222;51.462;12.630;2023-12-20T07:27:52;3.63;;;3.10;;
16228;SDS011;8222;51.462;12.630;2023-12-20T07:30:17;6.22;;;4.70;;
16228;SDS011;8222;51.462;12.630;2023-12-20T07:32:44;3.67;;;3.37;;
16228;SDS011;8222;51.462;12.630;2023-12-20T07:35:09;4.80;;;3.72;;
16228;SDS011;8222;51.462;12.630;2023-12-20T07:37:35;4.43;;;3.40;;
16228;SDS011;8222;51.462;12.630;2023-12-20T07:40:00;4.22;;;3.80;;
16228;SDS011;8222;51.462;12.630;2023-12-20T07:42:26;3.73;;;3.43;;
16228;SDS011;8222;51.462;12.630;2023-12-20T07:44:54;3.93;;;2.97;;
16228;SDS011;8222;51.462;12.630;2023-12-20T07:47:20;3.30;;;3.00;;
16228;SDS011;8222;51.462;12.630;2023-12-20T07:49:48;2.63;;;2.30;;
16228;SDS011;8222;51.462;12.630;2023-12-20T07:52:19;5.10;;;2.73;;
16228;SDS011;8222;51.462;12.630;2023-12-20T07:54:45;6.00;;;3.22;;
16228;SDS011;8222;51.462;12.630;2023-12-20T07:57:11;3.95;;;2.50;;
16228;SDS011;8222;51.462;12.630;2023-12-20T07:59:41;3.20;;;2.38;;
16228;SDS011;8222;51.462;12.630;2023-12-20T08:02:07;2.90;;;1.67;;
16228;SDS011;8222;51.462;12.630;2023-12-20T08:04:35;4.95;;;2.67;;
16228;SDS011;8222;51.462;12.630;2023-12-20T08:07:03;3.47;;;2.70;;
16228;SDS011;8222;51.462;12.630;2023-12-20T08:09:35;4.37;;;3.53;;
16228;SDS011;8222;51.462;12.630;2023-12-20T08:12:01;5.00;;;3.33;;
16228;SDS011;8222;51.462;12.630;2023-12-20T08:14:27;4.80;;;3.00;;
16228;SDS011;8222;51.462;12.630;2023-12-20T08:16:53;3.20;;;2.35;;
16228;SDS011;8222;51.462;12.630;2023-12-20T08:19:21;3.00;;;2.37;;
16228;SDS011;8222;51.462;12.630;2023-12-20T08:21:49;3.10;;;1.93;;
16228;SDS011;8222;51.462;12.630;2023-12-20T08:24:15;3.28;;;1.70;;
16228;SDS011;8222;51.462;12.630;2023-12-20T08:26:40;3.47;;;1.95;;
16228;SDS011;8222;51.462;12.630;2023-12-20T08:29:10;3.42;;;1.58;;
16228;SDS011;8222;51.462;12.630;2023-12-20T08:31:38;3.15;;;2.08;;
16228;SDS011;8222;51.462;12.630;2023-12-20T08:34:04;3.80;;;1.83;;
16228;SDS011;8222;51.462;12.630;2023-12-20T08:36:32;2.50;;;1.55;;
16228;SDS011;8222;51.462;12.630;2023-12-20T08:38:57;2.75;;;1.63;;
16228;SDS011;8222;51.462;12.630;2023-12-20T08:41:34;3.10;;;1.48;;
16228;SDS011;8222;51.462;12.630;2023-12-20T08:44:02;1.95;;;1.67;;
16228;SDS011;8222;51.462;12.630;2023-12-20T08:46:28;3.80;;;1.30;;
16228;SDS011;8222;51.462;12.630;2023-12-20T08:48:56;1.43;;;1.33;;
16228;SDS011;8222;51.462;12.630;2023-12-20T08:51:24;1.90;;;1.25;;
16228;SDS011;8222;51.462;12.630;2023-12-20T08:53:50;3.35;;;1.63;;
16228;SDS011;8222;51.462;12.630;2023-12-20T08:56:21;3.27;;;1.63;;
16228;SDS011;8222;51.462;12.630;2023-12-20T08:58:47;4.47;;;2.07;;
16228;SDS011;8222;51.462;12.630;2023-12-20T09:01:12;3.88;;;1.58;;
16228;SDS011;8222;51.462;12.630;2023-12-20T09:03:39;4.10;;;1.40;;
16228;SDS011;8222;51.462;12.630;2023-12-20T09:06:05;1.60;;;1.40;;
16228;SDS011;8222;51.462;12.630;2023-12-20T09:08:31;2.42;;;1.35;;
16228;SDS011;8222;51.462;12.630;2023-12-20T09:10:57;2.83;;;1.67;;
16228;SDS011;8222;51.462;12.630;2023-12-20T09:13:25;1.47;;;1.10;;
16228;SDS011;8222;51.462;12.630;2023-12-20T09:15:54;1.93;;;1.30;;
16228;SDS011;8222;51.462;12.630;2023-12-20T09:18:20;3.95;;;1.75;;
16228;SDS011;8222;51.462;12.630;2023-12-20T09:20:46;2.25;;;1.60;;
16228;SDS011;8222;51.462;12.630;2023-12-20T09:23:14;3.25;;;1.70;;
16228;SDS011;8222;51.462;12.630;2023-12-20T09:25:40;5.50;;;2.33;;
16228;SDS011;8222;51.462;12.630;2023-12-20T09:28:05;4.25;;;1.73;;
16228;SDS011;8222;51.462;12.630;2023-12-20T09:30:31;3.92;;;1.70;;
16228;SDS011;8222;51.462;12.630;2023-12-20T09:32:57;2.43;;;1.30;;
16228;SDS011;8222;51.462;12.630;2023-12-20T09:35:22;2.60;;;1.55;;
16228;SDS011;8222;51.462;12.630;2023-12-20T09:37:51;2.65;;;1.50;;
16228;SDS011;8222;51.462;12.630;2023-12-20T09:40:22;4.90;;;1.50;;
16228;SDS011;8222;51.462;12.630;2023-12-20T09:43:03;3.05;;;1.70;;
16228;SDS011;8222;51.462;12.630;2023-12-20T09:45:30;5.10;;;2.00;;
16228;SDS011;8222;51.462;12.630;2023-12-20T09:47:56;1.43;;;1.23;;
16228;SDS011;8222;51.462;12.630;2023-12-20T09:50:23;2.08;;;1.73;;
16228;SDS011;8222;51.462;12.630;2023-12-20T09:52:54;4.13;;;1.47;;
16228;SDS011;8222;51.462;12.630;2023-12-20T09:55:24;3.60;;;1.40;;
16228;SDS011;8222;51.462;12.630;2023-12-20T09:57:50;4.23;;;1.50;;
16228;SDS011;8222;51.462;12.630;2023-12-20T10:00:18;3.92;;;1.90;;
16228;SDS011;8222;51.462;12.630;2023-12-20T10:02:57;4.13;;;1.77;;
16228;SDS011;8222;51.462;12.630;2023-12-20T10:05:26;2.50;;;1.70;;
16228;SDS011;8222;51.462;12.630;2023-12-20T10:07:52;4.68;;;1.98;;
16228;SDS011;8222;51.462;12.630;2023-12-20T10:10:20;2.60;;;1.90;;
16228;SDS011;8222;51.462;12.630;2023-12-20T10:13:08;3.03;;;1.60;;
16228;SDS011;8222;51.462;12.630;2023-12-20T10:15:40;6.23;;;3.83;;
16228;SDS011;8222;51.462;12.630;2023-12-20T10:18:06;3.55;;;2.17;;
16228;SDS011;8222;51.462;12.630;2023-12-20T10:20:34;4.40;;;1.77;;
16228;SDS011;8222;51.462;12.630;2023-12-20T10:23:00;3.33;;;2.03;;
16228;SDS011;8222;51.462;12.630;2023-12-20T10:25:26;2.73;;;2.07;;
16228;SDS011;8222;51.462;12.630;2023-12-20T10:28:09;5.70;;;2.13;;
16228;SDS011;8222;51.462;12.630;2023-12-20T10:30:47;2.92;;;1.92;;
16228;SDS011;8222;51.462;12.630;2023-12-20T10:33:13;3.63;;;1.80;;
16228;SDS011;8222;51.462;12.630;2023-12-20T10:35:41;2.38;;;2.13;;
16228;SDS011;8222;51.462;12.630;2023-12-20T10:38:09;2.53;;;2.33;;
16228;SDS011;8222;51.462;12.630;2023-12-20T10:40:36;3.10;;;1.92;;
16228;SDS011;8222;51.462;12.630;2023-12-20T10:43:07;3.72;;;2.08;;
16228;SDS011;8222;51.462;12.630;2023-12-20T10:45:34;3.58;;;2.10;;
16228;SDS011;8222;51.462;12.630;2023-12-20T10:48:01;3.28;;;2.03;;
16228;SDS011;8222;51.462;12.630;2023-12-20T10:50:29;4.00;;;1.93;;
16228;SDS011;8222;51.462;12.630;2023-12-20T10:53:03;2.92;;;1.92;;
16228;SDS011;8222;51.462;12.630;2023-12-20T10:55:31;3.77;;;1.70;;
16228;SDS011;8222;51.462;12.630;2023-12-20T10:58:08;4.47;;;2.10;;
16228;SDS011;8222;51.462;12.630;2023-12-20T11:00:39;3.50;;;2.00;;
16228;SDS011;8222;51.462;12.630;2023-12-20T11:03:09;2.23;;;2.03;;
16228;SDS011;8222;51.462;12.630;2023-12-20T11:13:58;2.00;;;1.70;;
16228;SDS011;8222;51.462;12.630;2023-12-20T11:16:27;3.20;;;2.08;;
16228;SDS011;8222;51.462;12.630;2023-12-20T11:18:55;4.70;;;1.95;;
16228;SDS011;8222;51.462;12.630;2023-12-20T11:21:20;1.83;;;1.50;;
16228;SDS011;8222;51.462;12.630;2023-12-20T11:23:46;5.28;;;2.10;;
16228;SDS011;8222;51.462;12.630;2023-12-20T11:26:17;5.53;;;2.17;;
16228;SDS011;8222;51.462;12.630;2023-12-20T11:28:51;3.63;;;1.47;;
16228;SDS011;8222;51.462;12.630;2023-12-20T11:31:17;5.70;;;1.80;;
16228;SDS011;8222;51.462;12.630;2023-12-20T11:33:43;2.97;;;1.20;;
16228;SDS011;8222;51.462;12.630;2023-12-20T11:36:14;3.87;;;1.80;;
16228;SDS011;8222;51.462;12.630;2023-12-20T11:38:56;4.28;;;2.30;;
16228;SDS011;8222;51.462;12.630;2023-12-20T11:41:22;3.95;;;2.03;;
16228;SDS011;8222;51.462;12.630;2023-12-20T11:43:55;3.38;;;1.88;;
16228;SDS011;8222;51.462;12.630;2023-12-20T11:46:21;4.53;;;2.00;;
16228;SDS011;8222;51.462;12.630;2023-12-20T11:48:47;3.28;;;1.80;;
16228;SDS011;8222;51.462;12.630;2023-12-20T11:51:15;2.47;;;1.57;;
16228;SDS011;8222;51.462;12.630;2023-12-20T11:53:43;2.95;;;1.77;;
16228;SDS011;8222;51.462;12.630;2023-12-20T11:56:09;5.27;;;1.83;;
16228;SDS011;8222;51.462;12.630;2023-12-20T11:58:35;4.25;;;1.90;;
16228;SDS011;8222;51.462;12.630;2023-12-20T12:01:01;2.22;;;1.63;;
16228;SDS011;8222;51.462;12.630;2023-12-20T12:03:27;3.27;;;1.50;;
16228;SDS011;8222;51.462;12.630;2023-12-20T12:05:53;1.50;;;1.40;;
16228;SDS011;8222;51.462;12.630;2023-12-20T12:08:19;2.00;;;1.10;;
16228;SDS011;8222;51.462;12.630;2023-12-20T12:10:45;4.80;;;1.27;;
16228;SDS011;8222;51.462;12.630;2023-12-20T12:13:12;4.40;;;2.08;;
16228;SDS011;8222;51.462;12.630;2023-12-20T12:15:39;5.43;;;1.73;;
16228;SDS011;8222;51.462;12.630;2023-12-20T12:18:07;2.07;;;1.90;;
16228;SDS011;8222;51.462;12.630;2023-12-20T12:20:38;4.38;;;1.70;;
16228;SDS011;8222;51.462;12.630;2023-12-20T12:23:06;2.97;;;1.52;;
16228;SDS011;8222;51.462;12.630;2023-12-20T12:25:37;5.05;;;2.20;;
16228;SDS011;8222;51.462;12.630;2023-12-20T12:28:05;3.87;;;1.80;;
16228;SDS011;8222;51.462;12.630;2023-12-20T12:30:31;3.67;;;1.93;;
16228;SDS011;8222;51.462;12.630;2023-12-20T12:32:56;2.17;;;1.50;;
16228;SDS011;8222;51.462;12.630;2023-12-20T12:35:24;2.00;;;1.73;;
16228;SDS011;8222;51.462;12.630;2023-12-20T12:37:50;3.57;;;1.80;;
16228;SDS011;8222;51.462;12.630;2023-12-20T12:40:19;3.05;;;2.03;;
16228;SDS011;8222;51.462;12.630;2023-12-20T12:42:45;5.47;;;1.93;;
16228;SDS011;8222;51.462;12.630;2023-12-20T12:45:11;2.67;;;2.15;;
16228;SDS011;8222;51.462;12.630;2023-12-20T12:47:37;3.58;;;1.55;;
16228;SDS011;8222;51.462;12.630;2023-12-20T12:50:03;4.40;;;1.87;;
16228;SDS011;8222;51.462;12.630;2023-12-20T12:52:30;1.97;;;1.40;;
16228;SDS011;8222;51.462;12.630;2023-12-20T12:54:56;3.27;;;1.90;;
16228;SDS011;8222;51.462;12.630;2023-12-20T12:57:22;2.07;;;1.70;;
16228;SDS011;8222;51.462;12.630;2023-12-20T12:59:50;11.70;;;1.80;;
16228;SDS011;8222;51.462;12.630;2023-12-20T13:02:16;4.50;;;1.43;;
16228;SDS011;8222;51.462;12.630;2023-12-20T13:04:41;3.13;;;1.80;;
16228;SDS011;8222;51.462;12.630;2023-12-20T13:07:09;5.38;;;1.83;;
16228;SDS011;8222;51.462;12.630;2023-12-20T13:09:36;4.38;;;2.17;;
16228;SDS011;8222;51.462;12.630;2023-12-20T13:12:02;2.60;;;1.23;;
16228;SDS011;8222;51.462;12.630;2023-12-20T13:14:29;1.73;;;1.07;;
16228;SDS011;8222;51.462;12.630;2023-12-20T13:16:58;1.73;;;1.63;;
16228;SDS011;8222;51.462;12.630;2023-12-20T13:19:23;4.70;;;1.70;;
16228;SDS011;8222;51.462;12.630;2023-12-20T13:21:49;2.40;;;1.52;;
16228;SDS011;8222;51.462;12.630;2023-12-20T13:24:15;3.33;;;1.67;;
16228;SDS011;8222;51.462;12.630;2023-12-20T13:26:40;4.38;;;2.40;;
16228;SDS011;8222;51.462;12.630;2023-12-20T13:29:08;2.10;;;1.83;;
16228;SDS011;8222;51.462;12.630;2023-12-20T13:31:34;2.77;;;1.67;;
16228;SDS011;8222;51.462;12.630;2023-12-20T13:34:01;1.97;;;1.70;;
16228;SDS011;8222;51.462;12.630;2023-12-20T13:36:27;2.43;;;1.77;;
16228;SDS011;8222;51.462;12.630;2023-12-20T13:38:52;4.20;;;1.83;;
16228;SDS011;8222;51.462;12.630;2023-12-20T13:41:20;2.97;;;1.50;;
16228;SDS011;8222;51.462;12.630;2023-12-20T13:43:46;4.03;;;1.60;;
16228;SDS011;8222;51.462;12.630;2023-12-20T13:46:12;2.10;;;1.60;;
16228;SDS011;8222;51.462;12.630;2023-12-20T13:48:40;4.95;;;1.30;;
16228;SDS011;8222;51.462;12.630;2023-12-20T13:51:06;2.20;;;1.27;;
16228;SDS011;8222;51.462;12.630;2023-12-20T13:53:34;1.60;;;1.30;;
16228;SDS011;8222;51.462;12.630;2023-12-20T13:55:59;2.23;;;1.30;;
16228;SDS011;8222;51.462;12.630;2023-12-20T13:58:26;3.67;;;1.75;;
16228;SDS011;8222;51.462;12.630;2023-12-20T14:00:54;1.63;;;1.20;;
16228;SDS011;8222;51.462;12.630;2023-12-20T14:03:19;3.17;;;1.90;;
16228;SDS011;8222;51.462;12.630;2023-12-20T14:05:48;4.80;;;1.73;;
16228;SDS011;8222;51.462;12.630;2023-12-20T14:08:13;5.30;;;2.92;;
16228;SDS011;8222;51.462;12.630;2023-12-20T14:10:39;6.75;;;3.88;;
16228;SDS011;8222;51.462;12.630;2023-12-20T14:13:07;4.35;;;1.88;;
16228;SDS011;8222;51.462;12.630;2023-12-20T14:15:32;2.20;;;1.63;;
16228;SDS011;8222;51.462;12.630;2023-12-20T14:18:03;2.60;;;1.50;;
16228;SDS011;8222;51.462;12.630;2023-12-20T14:20:31;4.70;;;1.70;;
16228;SDS011;8222;51.462;12.630;2023-12-20T14:22:59;3.17;;;1.48;;
16228;SDS011;8222;51.462;12.630;2023-12-20T14:25:28;2.87;;;1.00;;
16228;SDS011;8222;51.462;12.630;2023-12-20T14:27:53;2.07;;;1.07;;
16228;SDS011;8222;51.462;12.630;2023-12-20T14:30:19;3.60;;;1.37;;
16228;SDS011;8222;51.462;12.630;2023-12-20T14:32:45;0.93;;;0.93;;
16228;SDS011;8222;51.462;12.630;2023-12-20T14:35:13;2.22;;;1.30;;
16228;SDS011;8222;51.462;12.630;2023-12-20T14:37:38;3.72;;;2.20;;
16228;SDS011;8222;51.462;12.630;2023-12-20T14:40:08;2.72;;;1.42;;
16228;SDS011;8222;51.462;12.630;2023-12-20T14:42:40;1.70;;;0.87;;
16228;SDS011;8222;51.462;12.630;2023-12-20T14:45:09;1.80;;;1.33;;
16228;SDS011;8222;51.462;12.630;2023-12-20T14:47:37;3.07;;;1.57;;
16228;SDS011;8222;51.462;12.630;2023-12-20T14:50:05;2.53;;;1.13;;
16228;SDS011;8222;51.462;12.630;2023-12-20T14:52:36;2.58;;;1.63;;
16228;SDS011;8222;51.462;12.630;2023-12-20T14:55:02;1.70;;;1.30;;
16228;SDS011;8222;51.462;12.630;2023-12-20T14:57:28;2.95;;;1.98;;